Time;durP1;ratioP1;P1;durP2;ratioP2;P2;SDS_P1;SDS_P2;PMS_P1;PMS_P2;Temp;Humidity;BMP_temperature;BMP_pressure;BME280_temperature;BME280_humidity;BME280_pressure;Samples;Min_cycle;Max_cycle;Signal;HPM_P1;HPM_P2
2022/09/16 00:00:23;;;;;;;3.90;1.63;;;;;;;17.15;58.03;99161.19;4883700;28;101201;-79
2022/09/16 00:02:51;;;;;;;4.43;1.70;;;;;;;17.14;58.48;99163.00;4873452;28;97296;-79
2022/09/16 00:05:17;;;;;;;3.22;1.40;;;;;;;17.13;58.60;99171.06;4861756;28;97041;-79
2022/09/16 00:07:42;;;;;;;3.58;1.27;;;;;;;17.08;58.36;99162.66;4860244;28;97903;-79
2022/09/16 00:10:09;;;;;;;2.72;1.20;;;;;;;17.10;58.55;99172.16;4875382;28;98073;-79
2022/09/16 00:12:34;;;;;;;2.78;1.50;;;;;;;17.07;58.30;99171.56;4892048;28;96772;-79
2022/09/16 00:15:00;;;;;;;2.03;1.20;;;;;;;17.06;58.41;99170.72;4894344;28;97216;-79
2022/09/16 00:17:25;;;;;;;4.15;1.70;;;;;;;17.08;58.30;99167.97;4859448;28;101426;-79
2022/09/16 00:19:51;;;;;;;6.82;1.73;;;;;;;17.04;58.19;99170.00;4883033;28;97591;-79
2022/09/16 00:22:17;;;;;;;4.32;1.42;;;;;;;17.05;58.82;99178.81;4875767;28;97190;-78
2022/09/16 00:24:42;;;;;;;5.45;1.50;;;;;;;17.05;58.68;99190.25;4851280;28;97663;-77
2022/09/16 00:27:08;;;;;;;6.28;1.70;;;;;;;16.96;58.70;99172.44;4883706;28;97389;-80
2022/09/16 00:29:34;;;;;;;3.90;1.58;;;;;;;16.90;58.43;99157.84;4861361;28;100981;-78
2022/09/16 00:31:59;;;;;;;8.60;1.52;;;;;;;17.02;58.88;99179.06;4864109;28;96976;-79
2022/09/16 00:34:25;;;;;;;3.15;1.40;;;;;;;17.01;58.87;99180.00;4877676;28;96895;-79
2022/09/16 00:36:50;;;;;;;5.30;1.50;;;;;;;16.91;58.96;99175.44;4860254;28;107407;-79
2022/09/16 00:39:16;;;;;;;3.88;1.90;;;;;;;17.00;58.85;99178.31;4839852;28;100904;-79
2022/09/16 00:41:43;;;;;;;3.80;1.42;;;;;;;16.97;58.69;99180.25;4862951;28;96762;-79
2022/09/16 00:44:45;;;;;;;4.15;1.45;;;;;;;16.94;58.89;99182.31;4861268;28;97162;-79
2022/09/16 00:47:13;;;;;;;2.55;1.40;;;;;;;16.91;58.71;99177.25;4869167;28;101337;-80
2022/09/16 00:49:38;;;;;;;4.90;1.48;;;;;;;16.95;59.01;99181.31;4861153;28;100918;-79
2022/09/16 00:52:04;;;;;;;2.78;1.00;;;;;;;16.97;58.78;99187.34;4860493;28;96736;-78
2022/09/16 00:54:31;;;;;;;3.72;1.52;;;;;;;16.88;59.07;99177.47;4893365;28;97362;-79
2022/09/16 00:56:58;;;;;;;3.97;1.63;;;;;;;16.90;58.66;99175.53;4860485;28;103000;-79
2022/09/16 00:59:34;;;;;;;4.07;1.52;;;;;;;16.91;58.85;99178.09;4892746;28;97364;-79
2022/09/16 01:02:06;;;;;;;4.72;1.73;;;;;;;16.81;58.68;99169.16;4851707;28;97024;-79
2022/09/16 01:04:35;;;;;;;11.55;2.70;;;;;;;16.85;58.39;99167.97;4877802;28;96836;-79
2022/09/16 01:07:00;;;;;;;3.13;1.25;;;;;;;16.81;58.29;99163.84;4890779;28;98710;-79
2022/09/16 01:09:26;;;;;;;5.45;1.33;;;;;;;16.86;58.41;99176.75;4880724;28;97964;-80
2022/09/16 01:11:52;;;;;;;5.07;1.60;;;;;;;16.81;58.46;99170.97;4893694;28;97149;-79
2022/09/16 01:17:30;;;;;;;4.07;1.35;;;;;;;16.87;58.97;99181.06;4899026;28;98488;-80
2022/09/16 01:20:04;;;;;;;3.75;1.42;;;;;;;16.86;58.64;99179.41;4872618;28;100905;-79
2022/09/16 01:22:50;;;;;;;3.72;1.30;;;;;;;16.78;58.29;99166.72;4895498;28;97193;-79
2022/09/16 01:25:49;;;;;;;3.92;1.48;;;;;;;16.88;58.49;99180.97;4881497;28;96919;-80
2022/09/16 01:28:21;;;;;;;5.05;1.40;;;;;;;16.90;58.30;99186.13;4892348;28;101037;-79
2022/09/16 01:30:49;;;;;;;6.60;2.13;;;;;;;16.89;58.43;99184.47;4913879;28;97373;-78
2022/09/16 01:33:18;;;;;;;2.47;1.27;;;;;;;16.60;57.91;99136.34;4896621;28;96780;-79
2022/09/16 01:35:59;;;;;;;4.22;1.75;;;;;;;16.90;58.06;99183.50;4893843;28;97438;-77
2022/09/16 01:38:39;;;;;;;3.72;1.60;;;;;;;16.85;58.20;99175.91;4878737;28;101418;-79
2022/09/16 01:41:34;;;;;;;7.40;1.90;;;;;;;16.84;58.65;99181.31;4894842;28;101646;-79
2022/09/16 01:44:25;;;;;;;3.70;1.80;;;;;;;16.82;58.26;99189.41;4875675;28;97123;-80
2022/09/16 01:47:20;;;;;;;6.60;1.80;;;;;;;16.83;58.16;99185.78;4880597;28;97028;-79
2022/09/16 01:49:55;;;;;;;5.07;1.65;;;;;;;16.81;58.20;99178.91;4880396;28;97446;-78
2022/09/16 01:52:42;;;;;;;4.38;1.77;;;;;;;16.80;58.46;99188.66;4874682;28;99373;-79
2022/09/16 01:55:22;;;;;;;3.88;1.88;;;;;;;16.77;58.31;99186.25;4892108;28;97205;-79
2022/09/16 01:57:58;;;;;;;3.38;1.45;;;;;;;16.80;58.48;99183.38;4864845;28;97513;-79
2022/09/16 02:00:24;;;;;;;6.05;1.77;;;;;;;16.78;58.19;99185.28;4893449;28;97652;-79
2022/09/16 02:03:09;;;;;;;9.23;1.50;;;;;;;16.77;58.39;99188.06;4877941;28;103213;-79
2022/09/16 02:05:38;;;;;;;5.55;1.45;;;;;;;16.62;58.37;99166.22;4878698;28;97417;-78
2022/09/16 02:08:13;;;;;;;4.30;1.50;;;;;;;16.58;58.32;99156.81;4894123;28;97210;-78
2022/09/16 02:10:45;;;;;;;2.95;1.30;;;;;;;16.70;58.41;99171.78;4897420;28;97494;-79
2022/09/16 02:13:41;;;;;;;4.70;1.73;;;;;;;16.69;58.70;99180.66;4879746;28;98208;-79
2022/09/16 02:16:15;;;;;;;3.38;1.38;;;;;;;16.72;58.50;99183.91;4872410;28;96732;-79
2022/09/16 02:18:43;;;;;;;2.28;1.30;;;;;;;16.75;58.41;99188.16;4892677;28;97937;-78
2022/09/16 02:21:13;;;;;;;3.58;1.50;;;;;;;16.73;58.34;99185.63;4881765;28;98365;-79
2022/09/16 02:23:46;;;;;;;6.90;1.48;;;;;;;16.74;58.15;99187.31;4873090;28;101282;-79
2022/09/16 02:26:14;;;;;;;4.28;1.48;;;;;;;16.74;58.11;99179.34;4875388;28;97124;-79
2022/09/16 02:28:41;;;;;;;3.83;1.30;;;;;;;16.78;57.81;99187.94;4880589;28;97507;-79
2022/09/16 02:31:08;;;;;;;2.13;1.20;;;;;;;16.73;58.25;99192.75;4893781;28;97728;-79
2022/09/16 02:33:44;;;;;;;3.22;1.50;;;;;;;16.73;58.31;99187.44;4890152;28;98000;-78
2022/09/16 02:36:13;;;;;;;3.20;1.50;;;;;;;16.75;58.26;99183.72;4877509;28;97833;-79
2022/09/16 02:38:48;;;;;;;2.17;1.30;;;;;;;16.71;57.86;99190.19;4877235;28;97132;-79
2022/09/16 02:41:14;;;;;;;1.88;1.05;;;;;;;16.63;57.88;99170.56;4878728;28;99500;-79
2022/09/16 02:43:41;;;;;;;5.35;1.45;;;;;;;16.58;57.87;99176.22;4878574;28;101097;-78
2022/09/16 02:46:24;;;;;;;3.47;1.08;;;;;;;16.69;57.83;99192.09;4911897;28;96722;-79
2022/09/16 02:49:11;;;;;;;4.57;1.02;;;;;;;16.70;58.05;99196.47;4872310;28;97292;-79
2022/09/16 02:51:51;;;;;;;6.63;1.08;;;;;;;16.67;57.71;99203.81;4878805;28;98184;-78
2022/09/16 02:54:23;;;;;;;2.10;1.20;;;;;;;16.61;58.25;99194.53;4873915;28;97726;-78
2022/09/16 02:56:49;;;;;;;3.33;1.23;;;;;;;16.61;58.31;99194.53;4876897;28;96708;-78
2022/09/16 02:59:15;;;;;;;6.35;1.20;;;;;;;16.60;58.20;99189.34;4877207;28;96773;-79
2022/09/16 03:01:45;;;;;;;6.90;1.15;;;;;;;16.66;58.24;99192.34;4875128;28;101069;-78
2022/09/16 03:04:15;;;;;;;2.17;1.20;;;;;;;16.65;58.29;99200.44;4877159;28;101182;-79
2022/09/16 03:06:41;;;;;;;9.05;1.45;;;;;;;16.47;58.62;99170.91;4879371;28;97235;-79
2022/09/16 03:09:11;;;;;;;6.68;1.52;;;;;;;16.60;58.57;99195.47;4873697;28;99740;-78
2022/09/16 03:11:55;;;;;;;3.17;0.93;;;;;;;16.64;58.60;99198.72;4875523;28;97919;-78
2022/09/16 03:14:45;;;;;;;4.65;1.10;;;;;;;16.63;58.41;99202.34;4884458;28;97424;-79
2022/09/16 03:17:32;;;;;;;4.10;1.30;;;;;;;16.61;58.66;99205.13;4899525;28;97974;-79
2022/09/16 03:20:26;;;;;;;2.13;1.15;;;;;;;16.60;59.00;99224.63;4882608;28;96872;-79
2022/09/16 03:23:04;;;;;;;4.50;1.10;;;;;;;16.59;59.73;99217.63;4906995;28;98122;-79
2022/09/16 03:25:49;;;;;;;3.42;1.77;;;;;;;16.59;60.29;99211.50;4877944;28;101054;-79
2022/09/16 03:28:22;;;;;;;2.67;0.90;;;;;;;16.55;61.04;99213.53;4898025;28;96861;-79
2022/09/16 03:30:53;;;;;;;3.70;1.13;;;;;;;16.52;61.17;99204.03;4882308;28;96826;-78
2022/09/16 03:33:42;;;;;;;4.43;1.13;;;;;;;16.51;61.39;99204.97;4898650;28;101146;-79
2022/09/16 03:36:12;;;;;;;1.30;1.00;;;;;;;16.53;61.41;99211.00;4899070;28;97626;-79
2022/09/16 03:38:38;;;;;;;3.67;1.27;;;;;;;16.52;61.48;99205.81;4882716;28;97108;-80
2022/09/16 03:41:05;;;;;;;3.03;1.20;;;;;;;16.48;61.86;99207.84;4883693;28;97722;-79
2022/09/16 03:43:30;;;;;;;4.53;1.02;;;;;;;16.39;62.13;99197.97;4869431;28;100879;-79
2022/09/16 03:45:56;;;;;;;3.30;0.90;;;;;;;16.49;61.94;99213.97;4876455;28;98409;-79
2022/09/16 03:48:21;;;;;;;4.38;1.10;;;;;;;16.45;62.02;99215.19;4887978;28;97571;-79
2022/09/16 03:50:47;;;;;;;2.15;0.93;;;;;;;16.30;62.42;99196.00;4896694;28;97169;-78
2022/09/16 03:53:12;;;;;;;4.90;1.27;;;;;;;16.39;62.43;99205.91;4913975;28;98832;-78
2022/09/16 03:55:38;;;;;;;3.45;1.15;;;;;;;16.43;62.31;99212.66;4893703;28;97535;-80
2022/09/16 03:58:03;;;;;;;4.30;1.25;;;;;;;16.31;62.39;99189.75;4880830;28;97155;-79
2022/09/16 04:00:29;;;;;;;3.38;1.17;;;;;;;16.29;62.63;99189.88;4884900;28;96886;-79
2022/09/16 04:02:55;;;;;;;2.13;1.17;;;;;;;16.30;62.64;99190.72;4879483;28;97396;-79
2022/09/16 04:05:20;;;;;;;4.68;1.30;;;;;;;16.41;62.60;99205.81;4877653;28;97247;-80
2022/09/16 04:07:48;;;;;;;3.55;1.40;;;;;;;16.25;62.77;99183.09;4894825;28;96900;-77
2022/09/16 04:10:14;;;;;;;4.47;1.30;;;;;;;16.30;62.60;99180.13;4880611;28;96825;-79
2022/09/16 04:12:39;;;;;;;4.68;1.63;;;;;;;16.35;62.86;99199.16;4888555;28;101558;-79
2022/09/16 04:15:05;;;;;;;3.03;1.30;;;;;;;16.37;63.11;99193.72;4879030;28;97307;-79
2022/09/16 04:17:31;;;;;;;4.28;1.30;;;;;;;16.37;62.92;99193.72;4877092;28;97780;-79
2022/09/16 04:19:57;;;;;;;1.65;0.90;;;;;;;16.37;62.98;99199.88;4909523;28;96824;-79
2022/09/16 04:22:22;;;;;;;4.15;1.10;;;;;;;16.27;62.92;99185.66;4864921;28;101771;-79
2022/09/16 04:24:48;;;;;;;3.42;1.35;;;;;;;16.37;62.77;99205.16;4878577;28;97935;-77
2022/09/16 04:27:13;;;;;;;5.15;1.67;;;;;;;16.26;63.34;99192.75;4860606;28;97307;-79
2022/09/16 04:29:39;;;;;;;5.95;1.20;;;;;;;16.32;63.12;99199.41;4878868;28;97044;-79
2022/09/16 04:32:04;;;;;;;2.53;1.20;;;;;;;16.34;63.14;99208.03;4869261;28;97984;-79
2022/09/16 04:34:31;;;;;;;3.45;1.40;;;;;;;16.21;63.14;99180.81;4895513;28;97994;-79
2022/09/16 04:36:57;;;;;;;2.33;0.98;;;;;;;16.13;63.22;99169.97;4895364;28;97498;-80
2022/09/16 04:39:23;;;;;;;2.13;1.10;;;;;;;16.34;63.38;99197.47;4864387;28;97255;-79
2022/09/16 04:41:48;;;;;;;1.63;0.90;;;;;;;16.28;63.27;99189.97;4908346;28;98062;-77
2022/09/16 04:44:14;;;;;;;3.42;1.20;;;;;;;16.29;63.45;99200.47;4891591;28;97841;-78
2022/09/16 04:46:41;;;;;;;4.25;1.75;;;;;;;16.33;63.39;99209.03;4893753;28;96943;-79
2022/09/16 04:49:06;;;;;;;4.55;1.50;;;;;;;16.32;63.37;99202.03;4875270;28;96897;-79
2022/09/16 04:51:32;;;;;;;3.42;1.23;;;;;;;16.26;63.86;99218.38;4880756;28;101110;-80
2022/09/16 04:53:58;;;;;;;5.30;1.30;;;;;;;16.18;64.04;99211.00;4880129;28;101101;-80
2022/09/16 04:56:30;;;;;;;4.78;1.05;;;;;;;16.27;64.29;99210.31;4885094;28;97178;-78
2022/09/16 04:58:59;;;;;;;4.82;1.20;;;;;;;16.29;64.23;99212.88;4874623;28;98635;-78
2022/09/16 05:01:27;;;;;;;2.40;1.02;;;;;;;16.28;64.08;99213.81;4895177;28;97617;-79
2022/09/16 05:03:54;;;;;;;4.10;1.23;;;;;;;16.30;64.15;99210.09;4862399;28;101813;-79
2022/09/16 05:06:22;;;;;;;5.97;1.45;;;;;;;16.30;63.81;99218.03;4899906;28;97227;-82
2022/09/16 05:08:49;;;;;;;3.50;1.13;;;;;;;16.33;63.71;99213.47;4898778;28;97349;-77
2022/09/16 05:11:23;;;;;;;2.38;1.17;;;;;;;16.29;64.12;99228.75;4882671;28;102954;-81
2022/09/16 05:13:49;;;;;;;3.58;1.45;;;;;;;16.30;63.82;99223.34;4876652;28;100995;-76
2022/09/16 05:16:16;;;;;;;5.65;1.25;;;;;;;16.29;63.98;99224.28;4869526;28;98342;-80
2022/09/16 05:18:43;;;;;;;4.90;1.50;;;;;;;16.28;63.76;99212.00;4880072;28;101645;-81
2022/09/16 05:21:11;;;;;;;4.00;1.25;;;;;;;16.32;63.78;99210.00;4903128;28;97853;-80
2022/09/16 05:23:37;;;;;;;3.95;1.40;;;;;;;16.19;63.32;99186.22;4877327;28;101248;-79
2022/09/16 05:26:07;;;;;;;1.73;0.90;;;;;;;16.29;63.31;99208.41;4893342;28;97417;-80
2022/09/16 05:28:34;;;;;;;2.67;1.33;;;;;;;16.28;63.51;99214.66;4891636;28;97405;-79
2022/09/16 05:31:10;;;;;;;3.28;1.17;;;;;;;16.31;63.55;99218.88;4887621;28;97480;-80
2022/09/16 05:33:36;;;;;;;2.53;1.10;;;;;;;16.34;63.61;99215.16;4885385;28;101061;-80
2022/09/16 05:36:06;;;;;;;4.80;1.13;;;;;;;16.23;63.30;99198.28;4900869;28;96833;-81
2022/09/16 05:38:32;;;;;;;5.97;1.50;;;;;;;16.39;63.07;99213.84;4894431;28;96990;-80
2022/09/16 05:40:59;;;;;;;2.53;1.20;;;;;;;16.40;63.26;99219.97;4911432;28;97479;-81
2022/09/16 05:43:24;;;;;;;3.58;1.33;;;;;;;16.42;63.19;99220.72;4879806;28;99879;-82
2022/09/16 05:45:54;;;;;;;4.60;1.60;;;;;;;16.44;62.65;99224.94;4863491;28;96782;-80
2022/09/16 05:48:20;;;;;;;2.88;1.63;;;;;;;16.33;62.72;99203.72;4852668;28;96963;-74
2022/09/16 05:51:05;;;;;;;2.60;1.20;;;;;;;16.47;62.42;99215.94;4878127;28;97507;-81
2022/09/16 05:53:32;;;;;;;4.32;1.50;;;;;;;16.39;62.62;99195.31;4861609;28;100931;-81
2022/09/16 05:56:05;;;;;;;5.50;1.35;;;;;;;16.58;62.70;99223.03;4894970;28;97249;-80
2022/09/16 05:58:32;;;;;;;2.25;1.17;;;;;;;16.51;62.61;99204.13;4882518;28;96974;-80
2022/09/16 06:00:58;;;;;;;4.57;1.48;;;;;;;16.58;62.38;99205.38;4879179;28;97443;-80
2022/09/16 06:03:25;;;;;;;3.63;1.38;;;;;;;16.60;62.19;99195.47;4895318;28;97331;-80
2022/09/16 06:05:52;;;;;;;5.13;1.42;;;;;;;16.77;62.07;99217.22;4859533;28;97076;-80
2022/09/16 06:08:17;;;;;;;3.83;1.10;;;;;;;16.84;61.84;99219.28;4876140;28;97861;-79
2022/09/16 06:10:42;;;;;;;3.58;1.50;;;;;;;16.83;61.94;99201.69;4878045;28;101033;-80
2022/09/16 06:13:08;;;;;;;3.42;1.30;;;;;;;17.00;61.88;99215.44;4863477;28;101731;-81
2022/09/16 06:15:34;;;;;;;3.17;1.65;;;;;;;17.03;61.86;99223.16;4893242;28;96960;-81
2022/09/16 06:18:00;;;;;;;4.80;1.50;;;;;;;17.07;61.40;99217.47;4858727;28;97127;-82
2022/09/16 06:20:26;;;;;;;4.00;1.65;;;;;;;17.05;61.52;99197.38;4863314;28;101409;-81
2022/09/16 06:22:51;;;;;;;3.45;1.20;;;;;;;17.34;61.65;99211.81;4894991;28;98506;-81
2022/09/16 06:25:17;;;;;;;2.83;1.10;;;;;;;17.53;61.02;99205.88;4868375;28;96762;-82
2022/09/16 06:27:42;;;;;;;5.82;1.58;;;;;;;17.61;60.21;99218.53;4895217;28;97166;-80
2022/09/16 06:30:08;;;;;;;5.50;1.55;;;;;;;17.49;60.03;99193.00;4863196;28;101620;-76
2022/09/16 06:32:34;;;;;;;4.13;1.50;;;;;;;17.57;59.82;99215.28;4891307;28;98015;-74
2022/09/16 06:34:59;;;;;;;2.95;1.13;;;;;;;17.63;59.77;99228.06;4867785;28;97220;-74
2022/09/16 06:37:25;;;;;;;4.40;1.42;;;;;;;17.49;59.61;99190.34;4893156;28;98085;-75
2022/09/16 06:39:51;;;;;;;3.25;1.63;;;;;;;17.47;59.33;99190.44;4875439;28;101001;-76
2022/09/16 06:42:16;;;;;;;4.82;1.40;;;;;;;17.56;59.24;99200.31;4879048;28;100523;-74
2022/09/16 06:44:42;;;;;;;3.65;1.50;;;;;;;17.69;58.89;99217.94;4896144;28;96772;-74
2022/09/16 06:47:08;;;;;;;2.58;1.27;;;;;;;17.70;58.85;99207.16;4905026;28;97472;-73
2022/09/16 06:49:33;;;;;;;4.18;1.25;;;;;;;17.81;58.70;99217.78;4891265;28;98040;-74
2022/09/16 06:51:59;;;;;;;3.28;1.40;;;;;;;17.76;58.44;99195.22;4880316;28;99156;-74
2022/09/16 06:54:24;;;;;;;3.05;1.45;;;;;;;18.22;58.04;99223.31;4915330;28;96745;-76
2022/09/16 06:56:50;;;;;;;3.83;1.52;;;;;;;18.41;57.49;99220.78;4888240;28;97310;-76
2022/09/16 06:59:15;;;;;;;7.22;1.88;;;;;;;18.39;57.44;99200.66;4875231;28;101462;-73
2022/09/16 07:01:41;;;;;;;3.70;1.33;;;;;;;18.66;56.50;99216.94;4888276;28;98447;-76
2022/09/16 07:04:15;;;;;;;7.38;1.30;;;;;;;18.68;56.28;99216.81;4883141;28;98700;-73
2022/09/16 07:06:40;;;;;;;3.42;1.00;;;;;;;18.73;56.56;99214.56;4895228;28;97346;-74
2022/09/16 07:09:06;;;;;;;5.43;1.33;;;;;;;18.82;56.53;99219.16;4872153;28;100985;-77
2022/09/16 07:11:31;;;;;;;3.47;1.00;;;;;;;18.75;56.18;99220.66;4893121;28;101353;-75
2022/09/16 07:13:58;;;;;;;3.58;1.00;;;;;;;18.55;55.74;99204.53;4869391;28;97802;-77
2022/09/16 07:16:25;;;;;;;2.92;1.20;;;;;;;18.56;56.12;99224.00;4911933;28;97381;-78
2022/09/16 07:18:54;;;;;;;4.05;1.20;;;;;;;18.53;56.12;99224.25;4880248;28;101431;-78
2022/09/16 07:21:23;;;;;;;2.22;0.80;;;;;;;18.40;55.76;99216.47;4879760;28;100891;-78
2022/09/16 07:23:49;;;;;;;2.10;0.98;;;;;;;18.30;56.07;99208.44;4903063;28;98723;-78
2022/09/16 07:26:19;;;;;;;7.70;1.40;;;;;;;18.46;56.42;99231.06;4881978;28;96855;-78
2022/09/16 07:28:46;;;;;;;8.07;1.80;;;;;;;18.48;56.32;99211.34;4880631;28;100284;-76
2022/09/16 07:31:15;;;;;;;4.88;1.75;;;;;;;18.66;56.24;99229.38;4897528;28;98021;-78
2022/09/16 07:33:43;;;;;;;6.90;1.30;;;;;;;18.68;55.83;99216.81;4876519;28;98439;-77
2022/09/16 07:36:10;;;;;;;3.30;1.33;;;;;;;18.58;55.98;99186.66;4878408;28;97630;-77
2022/09/16 07:38:35;;;;;;;3.72;1.00;;;;;;;19.10;55.37;99222.94;4879639;28;101129;-77
2022/09/16 07:41:05;;;;;;;2.45;1.00;;;;;;;19.20;53.65;99223.00;4895796;28;97427;-77
2022/09/16 07:43:30;;;;;;;3.08;1.13;;;;;;;19.14;54.04;99215.50;4890871;28;97170;-76
2022/09/16 07:45:57;;;;;;;2.38;0.82;;;;;;;19.13;53.39;99220.00;4881002;28;97298;-78
2022/09/16 07:48:22;;;;;;;4.00;1.08;;;;;;;19.08;53.23;99224.03;4913954;28;98615;-76
2022/09/16 07:50:56;;;;;;;1.52;0.70;;;;;;;19.10;52.62;99228.25;4894651;28;97569;-77
2022/09/16 07:53:22;;;;;;;3.20;1.05;;;;;;;19.03;52.51;99231.59;4877793;28;97263;-76
2022/09/16 07:55:48;;;;;;;3.65;1.17;;;;;;;18.99;52.81;99239.84;4878100;28;97526;-76
2022/09/16 07:58:13;;;;;;;3.35;1.30;;;;;;;19.03;52.78;99235.09;4913611;28;97379;-75
2022/09/16 08:00:38;;;;;;;3.55;1.05;;;;;;;19.03;52.29;99235.09;4894418;28;97500;-76
2022/09/16 08:03:05;;;;;;;2.30;0.80;;;;;;;18.98;52.54;99237.28;4875508;28;97471;-76
2022/09/16 08:05:30;;;;;;;4.97;1.30;;;;;;;19.00;52.66;99238.00;4846533;28;96934;-76
2022/09/16 08:07:56;;;;;;;2.17;0.85;;;;;;;19.04;52.22;99233.25;4877270;28;98186;-78
2022/09/16 08:10:21;;;;;;;2.30;1.02;;;;;;;19.10;51.93;99236.22;4861299;28;101129;-75
2022/09/16 08:12:47;;;;;;;1.60;0.90;;;;;;;19.13;51.87;99238.63;4861376;28;97280;-77
2022/09/16 08:15:13;;;;;;;1.60;0.88;;;;;;;19.12;51.68;99228.97;4871090;28;97181;-76
2022/09/16 08:17:38;;;;;;;4.45;1.15;;;;;;;19.31;51.79;99245.97;4861983;28;101058;-76
2022/09/16 08:20:05;;;;;;;4.78;1.10;;;;;;;19.35;51.41;99229.63;4860357;28;101106;-77
2022/09/16 08:22:31;;;;;;;4.50;1.00;;;;;;;19.49;51.36;99230.22;4891533;28;97638;-77
2022/09/16 08:24:56;;;;;;;1.95;0.77;;;;;;;19.76;51.35;99226.97;4876982;28;97244;-77
2022/09/16 08:27:22;;;;;;;4.57;0.93;;;;;;;20.18;50.86;99234.72;4874394;28;101410;-77
2022/09/16 08:29:47;;;;;;;4.32;1.33;;;;;;;20.60;49.88;99226.47;4873819;28;101004;-77
2022/09/16 08:32:13;;;;;;;2.45;0.98;;;;;;;20.87;49.36;99218.53;4889815;28;97306;-78
2022/09/16 08:34:39;;;;;;;5.75;0.95;;;;;;;21.33;48.04;99227.50;4890844;28;96948;-76
2022/09/16 08:37:04;;;;;;;3.88;1.00;;;;;;;21.68;47.24;99226.78;4876038;28;97497;-76
2022/09/16 08:39:30;;;;;;;2.90;0.98;;;;;;;22.14;46.31;99221.41;4860429;28;101113;-76
2022/09/16 08:42:01;;;;;;;1.67;0.77;;;;;;;22.62;45.22;99225.50;4857441;28;96804;-78
2022/09/16 08:45:02;;;;;;;4.32;1.00;;;;;;;23.16;44.51;99228.06;4890697;28;96943;-77
2022/09/16 08:47:48;;;;;;;3.03;0.93;;;;;;;23.34;43.96;99231.50;4893109;28;97549;-73
2022/09/16 08:50:18;;;;;;;6.10;1.60;;;;;;;23.16;44.58;99222.72;4875295;28;101336;-74
2022/09/16 08:52:44;;;;;;;2.83;0.88;;;;;;;22.76;44.22;99224.94;4861409;28;97280;-74
2022/09/16 08:55:30;;;;;;;2.53;1.08;;;;;;;22.37;44.38;99235.19;4878620;28;97047;-76
2022/09/16 08:58:12;;;;;;;3.13;1.10;;;;;;;21.88;44.95;99232.84;4860953;28;101613;-80
2022/09/16 09:00:39;;;;;;;2.92;0.88;;;;;;;21.48;45.94;99223.38;4876600;28;101500;-82
2022/09/16 09:03:35;;;;;;;2.95;1.08;;;;;;;21.32;46.26;99241.84;4866704;28;96762;-83
2022/09/16 09:06:03;;;;;;;4.05;1.13;;;;;;;21.34;46.34;99244.34;4874463;28;97317;-84
2022/09/16 09:08:47;;;;;;;3.40;1.02;;;;;;;21.21;46.14;99242.84;4856991;28;101059;-84
2022/09/16 09:11:20;;;;;;;9.80;1.80;;;;;;;20.92;46.71;99242.94;4881107;28;101390;-86
2022/09/16 09:13:48;;;;;;;2.53;1.00;;;;;;;20.99;47.12;99238.69;4887327;28;97225;-86
2022/09/16 09:16:16;;;;;;;3.35;1.30;;;;;;;20.86;47.77;99238.19;4892780;28;97892;-85
2022/09/16 09:18:48;;;;;;;3.83;1.00;;;;;;;20.64;47.99;99211.84;4883539;28;101230;-85
2022/09/16 09:21:30;;;;;;;4.43;1.23;;;;;;;21.09;48.01;99213.81;4882774;28;101001;-85
2022/09/16 09:24:17;;;;;;;3.05;1.20;;;;;;;21.71;46.12;99233.66;4879216;28;96818;-85
2022/09/16 09:26:48;;;;;;;5.78;1.30;;;;;;;22.11;46.50;99227.91;4915646;28;97117;-86
2022/09/16 09:29:36;;;;;;;3.78;0.98;;;;;;;22.78;45.26;99219.47;4898480;28;98198;-86
2022/09/16 09:32:20;;;;;;;4.38;1.05;;;;;;;23.45;43.79;99212.47;4862561;28;100766;-87
2022/09/16 09:35:07;;;;;;;1.63;0.93;;;;;;;24.03;43.26;99213.50;4896482;28;96692;-85
2022/09/16 09:37:50;;;;;;;3.80;1.20;;;;;;;24.47;42.52;99207.03;4890252;28;97147;-87
2022/09/16 09:40:46;;;;;;;2.78;1.33;;;;;;;24.34;41.96;99218.19;4897517;28;98106;-86
2022/09/16 09:43:33;;;;;;;3.65;1.00;;;;;;;23.96;42.27;99215.16;4873318;28;101239;-85
2022/09/16 09:46:25;;;;;;;4.20;0.98;;;;;;;23.45;42.54;99208.97;4876024;28;97041;-85
2022/09/16 09:49:02;;;;;;;3.88;1.02;;;;;;;22.96;43.12;99206.88;4890509;28;97016;-85
2022/09/16 09:51:32;;;;;;;1.98;0.93;;;;;;;23.16;43.41;99198.63;4895736;28;101126;-85
2022/09/16 09:54:18;;;;;;;2.60;1.08;;;;;;;23.93;42.33;99205.59;4887887;28;101342;-86
2022/09/16 09:56:44;;;;;;;5.45;1.50;;;;;;;24.66;40.94;99195.09;4881699;28;97320;-86
2022/09/16 09:59:42;;;;;;;14.88;4.30;;;;;;;25.12;39.70;99198.84;4884901;28;96824;-85
2022/09/16 10:02:14;;;;;;;14.25;4.97;;;;;;;25.34;39.98;99208.03;4859095;28;100852;-87
2022/09/16 10:04:39;;;;;;;4.45;1.40;;;;;;;25.46;39.18;99193.19;4892514;28;98510;-81
2022/09/16 10:07:06;;;;;;;2.25;1.25;;;;;;;25.28;39.33;99188.09;4863126;28;97767;-83
2022/09/16 10:09:33;;;;;;;1.90;0.93;;;;;;;25.29;39.06;99192.44;4862970;28;97349;-82
2022/09/16 10:11:59;;;;;;;3.15;1.20;;;;;;;25.47;38.77;99194.88;4891673;28;101450;-83
2022/09/16 10:14:29;;;;;;;3.78;0.90;;;;;;;25.62;38.17;99203.00;4878146;28;97846;-85
2022/09/16 10:16:55;;;;;;;2.58;0.90;;;;;;;25.48;37.54;99193.88;4882052;28;97010;-91
2022/09/16 10:19:23;;;;;;;3.08;1.00;;;;;;;25.53;37.56;99201.38;4860524;28;96965;-82
2022/09/16 10:21:52;;;;;;;3.42;0.93;;;;;;;25.30;37.03;99187.88;4892323;28;97490;-81
2022/09/16 10:24:33;;;;;;;2.58;0.73;;;;;;;24.81;36.85;99175.44;4886280;28;98170;-82
2022/09/16 10:27:00;;;;;;;3.90;1.13;;;;;;;24.68;37.68;99185.03;4896752;28;97260;-84
2022/09/16 10:29:26;;;;;;;2.40;1.02;;;;;;;24.38;38.51;99198.09;4898425;28;96821;-82
2022/09/16 10:31:52;;;;;;;2.45;1.45;;;;;;;24.30;37.65;99182.84;4896353;28;97353;-83
2022/09/16 10:34:31;;;;;;;0.77;0.60;;;;;;;24.00;37.66;99179.00;4864835;28;100990;-83
2022/09/16 10:36:58;;;;;;;2.65;0.90;;;;;;;23.82;38.32;99175.59;4902094;28;97405;-83
2022/09/16 10:39:25;;;;;;;3.58;0.70;;;;;;;23.62;38.67;99178.56;4912669;28;96945;-84
2022/09/16 10:41:51;;;;;;;2.22;0.85;;;;;;;23.64;38.92;99181.06;4877634;28;97897;-84
2022/09/16 10:44:24;;;;;;;5.25;1.45;;;;;;;23.56;38.31;99189.94;4866495;28;101637;-85
2022/09/16 10:47:02;;;;;;;2.22;0.77;;;;;;;23.33;38.06;99180.78;4888574;28;96959;-83
2022/09/16 10:49:36;;;;;;;2.00;0.82;;;;;;;23.20;38.33;99186.59;4881400;28;96880;-84
2022/09/16 10:52:14;;;;;;;2.55;0.90;;;;;;;22.95;38.26;99165.09;4880620;28;97390;-85
2022/09/16 10:54:39;;;;;;;2.03;0.68;;;;;;;22.86;38.46;99184.69;4896518;28;97388;-84
2022/09/16 10:57:27;;;;;;;1.98;0.70;;;;;;;22.70;39.05;99177.44;4896189;28;97384;-85
2022/09/16 11:00:11;;;;;;;3.97;0.70;;;;;;;22.60;39.04;99179.34;4875046;28;96679;-84
2022/09/16 11:02:50;;;;;;;1.98;0.80;;;;;;;22.41;38.60;99163.53;4879559;28;101164;-85
2022/09/16 11:05:30;;;;;;;3.65;0.75;;;;;;;22.26;38.58;99184.63;4882227;28;101380;-84
2022/09/16 11:08:22;;;;;;;3.83;1.00;;;;;;;22.12;38.93;99176.13;4890153;28;96826;-88
2022/09/16 11:11:09;;;;;;;3.40;0.80;;;;;;;22.02;39.86;99180.72;4848579;28;97745;-87
2022/09/16 11:13:58;;;;;;;2.60;0.70;;;;;;;22.08;40.02;99181.94;4882579;28;98079;-86
2022/09/16 11:16:38;;;;;;;2.47;0.85;;;;;;;22.00;39.97;99176.53;4884172;28;98039;-82
2022/09/16 11:19:10;;;;;;;4.97;0.95;;;;;;;21.89;40.38;99175.75;4878856;28;96952;-80
2022/09/16 11:21:39;;;;;;;2.95;0.98;;;;;;;;;;4864305;28;97371;-81
2022/09/16 11:24:14;;;;;;;2.38;0.80;;;;;;;21.69;40.48;99180.38;4893455;28;97253;-78
2022/09/16 11:27:07;;;;;;;4.50;0.95;;;;;;;21.63;40.13;99175.66;4881774;28;101298;-77
2022/09/16 11:29:33;;;;;;;1.83;0.73;;;;;;;21.69;40.27;99168.88;4880825;28;97190;-80
2022/09/16 11:32:28;;;;;;;3.05;0.80;;;;;;;21.69;40.66;99159.03;4898475;28;96802;-81
2022/09/16 11:34:59;;;;;;;3.45;0.80;;;;;;;21.71;41.35;99166.91;4895493;28;101464;-82
2022/09/16 11:37:30;;;;;;;3.95;0.90;;;;;;;21.56;41.91;99141.72;4895199;28;101638;-83
2022/09/16 11:40:07;;;;;;;5.05;1.73;;;;;;;21.60;41.96;99161.75;4878027;28;96910;-82
2022/09/16 11:43:05;;;;;;;3.33;0.98;;;;;;;21.51;41.61;99155.50;4880807;28;97460;-82
2022/09/16 11:45:49;;;;;;;2.63;0.90;;;;;;;21.49;41.99;99168.16;4889301;28;98399;-82
2022/09/16 11:48:26;;;;;;;3.20;1.00;;;;;;;21.22;41.83;99136.94;4898948;28;99436;-90
2022/09/16 11:51:05;;;;;;;1.58;0.63;;;;;;;21.09;41.65;99134.66;4877708;28;96797;-83
2022/09/16 11:53:35;;;;;;;2.85;0.75;;;;;;;21.14;41.67;99163.53;4880035;28;97445;-82